Time;durP1;ratioP1;P1;durP2;ratioP2;P2;SDS_P1;SDS_P2;PMS_P1;PMS_P2;Temp;Humidity;BMP_temperature;BMP_pressure;BME280_temperature;BME280_humidity;BME280_pressure;Samples;Min_cycle;Max_cycle;Signal;HPM_P1;HPM_P2
2023/07/23 00:00:16;;;;;;;2.05;1.70;;;24.80;63.20;;;;;;4989190;28;20031;-52
2023/07/23 00:02:42;;;;;;;2.17;1.75;;;24.80;63.30;;;;;;4971671;28;20062;-51
2023/07/23 00:05:08;;;;;;;2.75;2.00;;;24.80;63.50;;;;;;4987819;28;20035;-51
2023/07/23 00:07:33;;;;;;;3.08;2.25;;;24.70;63.50;;;;;;4987829;28;20114;-51
2023/07/23 00:09:59;;;;;;;2.63;2.22;;;24.70;63.70;;;;;;4971747;28;20094;-51
2023/07/23 00:12:24;;;;;;;3.88;2.22;;;24.70;63.80;;;;;;4989111;28;20031;-51
2023/07/23 00:14:50;;;;;;;2.65;2.08;;;24.60;63.80;;;;;;4987756;28;20124;-51
2023/07/23 00:17:15;;;;;;;4.75;2.00;;;24.60;63.90;;;;;;4988878;28;20038;-51
2023/07/23 00:19:41;;;;;;;2.83;2.35;;;24.50;64.00;;;;;;4987809;28;20515;-51
2023/07/23 00:22:06;;;;;;;3.85;2.00;;;24.50;64.10;;;;;;4988797;28;20033;-52
2023/07/23 00:24:32;;;;;;;3.35;2.10;;;24.50;64.20;;;;;;4988817;28;20026;-51
2023/07/23 00:26:58;;;;;;;3.33;1.90;;;24.50;64.30;;;;;;4987381;28;20372;-52
2023/07/23 00:29:23;;;;;;;2.63;2.00;;;24.40;64.40;;;;;;4971250;28;20031;-51
2023/07/23 00:31:49;;;;;;;2.03;1.88;;;24.40;64.60;;;;;;4987396;28;20030;-51
2023/07/23 00:34:14;;;;;;;2.95;1.63;;;24.40;64.70;;;;;;4987384;28;20070;-51
2023/07/23 00:36:40;;;;;;;6.30;2.28;;;24.40;64.70;;;;;;4987350;28;20086;-52
2023/07/23 00:39:05;;;;;;;2.97;2.00;;;24.40;64.80;;;;;;4988572;28;20028;-52
2023/07/23 00:41:31;;;;;;;2.38;1.95;;;24.30;64.80;;;;;;4987078;28;20039;-51
2023/07/23 00:43:57;;;;;;;4.00;2.00;;;24.30;64.90;;;;;;4987107;28;20034;-51
2023/07/23 00:46:22;;;;;;;2.45;1.80;;;24.30;65.00;;;;;;4988507;28;20033;-51
2023/07/23 00:48:48;;;;;;;2.35;2.15;;;24.20;65.00;;;;;;4987166;28;20070;-51
2023/07/23 00:51:13;;;;;;;2.88;2.03;;;24.20;65.00;;;;;;4988303;28;20023;-51
2023/07/23 00:53:39;;;;;;;2.60;2.03;;;24.20;65.20;;;;;;4988253;28;20045;-51
2023/07/23 00:56:05;;;;;;;3.80;2.30;;;24.10;65.30;;;;;;4986816;28;20034;-51
2023/07/23 00:58:30;;;;;;;2.30;1.83;;;24.10;65.30;;;;;;4988321;28;20030;-51
2023/07/23 01:00:56;;;;;;;3.03;1.88;;;24.10;65.50;;;;;;4987466;28;20027;-51
2023/07/23 01:03:22;;;;;;;4.20;2.15;;;24.00;65.60;;;;;;4986907;28;20031;-51
2023/07/23 01:05:47;;;;;;;3.38;2.20;;;24.00;65.70;;;;;;4988245;28;20054;-51
2023/07/23 01:08:13;;;;;;;2.40;2.10;;;24.00;65.80;;;;;;4986223;28;20094;-51
2023/07/23 01:10:39;;;;;;;3.45;1.92;;;24.00;65.90;;;;;;4970542;28;20038;-51
2023/07/23 01:13:05;;;;;;;4.53;2.25;;;24.00;66.00;;;;;;4986439;28;20078;-51
2023/07/23 01:15:30;;;;;;;4.28;1.98;;;23.90;66.10;;;;;;4970439;28;20034;-51
2023/07/23 01:17:56;;;;;;;3.83;2.20;;;23.90;66.30;;;;;;4986734;28;20057;-51
2023/07/23 01:20:21;;;;;;;4.63;2.22;;;23.90;66.30;;;;;;4987396;28;20023;-51
2023/07/23 01:22:47;;;;;;;5.07;2.25;;;23.80;66.40;;;;;;4986069;28;20142;-51
2023/07/23 01:25:12;;;;;;;2.88;1.90;;;23.80;66.60;;;;;;4989534;28;20031;-51
2023/07/23 01:27:38;;;;;;;2.58;2.00;;;23.80;66.50;;;;;;4987529;28;20027;-50
2023/07/23 01:30:08;;;;;;;3.53;2.00;;;23.70;66.70;;;;;;4986470;28;20491;-51
2023/07/23 01:32:33;;;;;;;2.35;2.15;;;23.70;67.00;;;;;;4987593;28;20078;-51
2023/07/23 01:35:05;;;;;;;3.10;2.10;;;23.70;67.10;;;;;;4987507;28;20038;-51
2023/07/23 01:37:31;;;;;;;3.95;2.40;;;23.70;67.10;;;;;;4985847;28;20027;-51
2023/07/23 01:39:56;;;;;;;2.85;1.90;;;23.60;67.20;;;;;;4986146;28;20421;-51
2023/07/23 01:42:22;;;;;;;2.92;2.10;;;23.60;67.20;;;;;;4986011;28;20038;-51
2023/07/23 01:44:47;;;;;;;3.67;2.40;;;23.60;67.30;;;;;;4986146;28;20363;-51
2023/07/23 01:47:13;;;;;;;4.30;2.45;;;23.60;67.50;;;;;;4986083;28;20030;-52
2023/07/23 01:49:38;;;;;;;4.45;2.50;;;23.60;67.70;;;;;;4969839;28;20035;-51
2023/07/23 01:52:04;;;;;;;4.30;2.33;;;23.50;67.70;;;;;;4986453;28;20027;-51
2023/07/23 01:54:30;;;;;;;3.60;2.47;;;23.50;67.90;;;;;;4987469;28;20035;-51
2023/07/23 01:56:55;;;;;;;3.78;2.47;;;23.50;68.10;;;;;;4987455;28;20026;-51
2023/07/23 01:59:21;;;;;;;2.28;1.95;;;23.40;68.10;;;;;;4987432;28;20022;-51
2023/07/23 02:01:46;;;;;;;3.15;1.88;;;23.40;68.30;;;;;;4987237;28;20031;-51
2023/07/23 02:04:12;;;;;;;5.13;2.58;;;23.40;68.40;;;;;;4985916;28;20171;-51
2023/07/23 02:06:37;;;;;;;2.95;2.25;;;23.40;68.40;;;;;;4985999;28;20031;-51
2023/07/23 02:09:03;;;;;;;3.15;2.42;;;23.40;68.40;;;;;;4986867;28;20494;-51
2023/07/23 02:11:29;;;;;;;2.42;2.22;;;23.30;68.40;;;;;;4985668;28;20030;-51
2023/07/23 02:13:54;;;;;;;3.25;2.25;;;23.30;68.60;;;;;;4985733;28;20475;-52
2023/07/23 02:16:20;;;;;;;3.80;2.30;;;23.30;68.80;;;;;;4986106;28;20035;-51
2023/07/23 02:18:46;;;;;;;3.38;2.40;;;23.30;68.90;;;;;;4985695;28;20027;-51
2023/07/23 02:21:11;;;;;;;6.72;2.42;;;23.30;69.00;;;;;;4987896;28;20022;-51
2023/07/23 02:23:37;;;;;;;3.88;2.58;;;23.20;69.20;;;;;;4989603;28;20066;-51
2023/07/23 02:26:02;;;;;;;3.03;2.50;;;23.20;69.30;;;;;;4989373;28;20039;-52
2023/07/23 02:28:28;;;;;;;2.63;2.42;;;23.20;69.40;;;;;;4989825;28;20023;-51
2023/07/23 02:30:56;;;;;;;2.67;2.08;;;23.10;69.50;;;;;;4990981;28;20034;-51
2023/07/23 02:33:21;;;;;;;3.85;2.30;;;23.10;69.60;;;;;;4990893;28;20026;-51
2023/07/23 02:35:47;;;;;;;2.45;2.10;;;23.10;69.70;;;;;;4989719;28;20387;-51
2023/07/23 02:38:12;;;;;;;2.90;2.60;;;23.00;69.70;;;;;;4989380;28;20037;-52
2023/07/23 02:40:38;;;;;;;3.17;2.15;;;23.10;69.80;;;;;;4989449;28;20034;-51
2023/07/23 02:43:03;;;;;;;4.85;2.40;;;23.00;69.90;;;;;;4990790;28;20059;-51
2023/07/23 02:45:29;;;;;;;2.88;2.33;;;23.00;70.10;;;;;;4989503;28;20027;-51
2023/07/23 02:47:54;;;;;;;4.72;2.30;;;23.00;70.20;;;;;;4989196;28;20075;-51
2023/07/23 02:50:20;;;;;;;3.92;2.75;;;22.90;70.30;;;;;;4990583;28;20085;-51
2023/07/23 02:52:46;;;;;;;3.78;2.58;;;22.90;70.40;;;;;;4989312;28;20035;-51
2023/07/23 02:55:11;;;;;;;5.57;2.72;;;22.90;70.50;;;;;;4989039;28;20038;-51
2023/07/23 02:57:37;;;;;;;4.22;2.70;;;22.90;70.50;;;;;;4990317;28;20034;-51
2023/07/23 03:00:03;;;;;;;2.58;2.22;;;22.80;70.60;;;;;;4990444;28;20110;-51
2023/07/23 03:02:29;;;;;;;3.50;2.33;;;22.80;70.90;;;;;;4990357;28;20062;-51
2023/07/23 03:04:54;;;;;;;3.22;2.17;;;22.80;70.90;;;;;;4989977;28;20118;-51
2023/07/23 03:07:20;;;;;;;3.38;2.08;;;22.80;71.00;;;;;;4990377;28;20117;-51
2023/07/23 03:09:46;;;;;;;3.13;2.40;;;22.80;71.10;;;;;;4989057;28;20026;-51
2023/07/23 03:12:11;;;;;;;3.25;2.58;;;22.80;71.10;;;;;;4989087;28;20091;-51
2023/07/23 03:14:37;;;;;;;3.67;2.35;;;22.80;71.30;;;;;;4970906;28;20030;-51
2023/07/23 03:17:02;;;;;;;2.78;2.28;;;22.70;71.30;;;;;;4990739;28;20038;-51
2023/07/23 03:19:28;;;;;;;3.25;2.47;;;22.70;71.40;;;;;;4990662;28;20027;-51
2023/07/23 03:21:54;;;;;;;2.35;2.15;;;22.60;71.40;;;;;;4972868;28;20023;-51
2023/07/23 03:24:19;;;;;;;2.97;2.50;;;22.60;71.70;;;;;;4990059;28;20030;-51
2023/07/23 03:26:45;;;;;;;2.53;2.22;;;22.60;71.80;;;;;;4989845;28;20027;-51
2023/07/23 03:29:10;;;;;;;4.03;2.28;;;22.60;72.00;;;;;;4988547;28;20035;-51
2023/07/23 03:31:36;;;;;;;8.68;2.28;;;22.60;72.00;;;;;;4988516;28;20027;-51
2023/07/23 03:34:02;;;;;;;2.53;2.30;;;22.60;72.00;;;;;;4972293;28;20027;-51
2023/07/23 03:36:27;;;;;;;4.75;2.42;;;22.50;72.10;;;;;;4988484;28;20061;-51
2023/07/23 03:38:53;;;;;;;6.50;2.30;;;22.50;72.20;;;;;;4989867;28;20035;-51
2023/07/23 03:41:18;;;;;;;2.33;2.13;;;22.50;72.20;;;;;;4988197;28;20090;-51
2023/07/23 03:43:44;;;;;;;2.88;2.40;;;22.50;72.30;;;;;;4988470;28;20034;-51
2023/07/23 03:46:09;;;;;;;2.38;2.17;;;22.50;72.40;;;;;;4988235;28;20360;-51
2023/07/23 03:48:35;;;;;;;2.40;2.17;;;22.50;72.60;;;;;;4988230;28;20054;-51
2023/07/23 03:51:01;;;;;;;7.38;2.92;;;22.40;72.60;;;;;;4989276;28;20030;-51
2023/07/23 03:53:26;;;;;;;3.20;2.50;;;22.40;72.70;;;;;;4988025;28;20031;-51
2023/07/23 03:55:52;;;;;;;3.58;2.63;;;22.40;73.50;;;;;;4988257;28;20031;-51
2023/07/23 03:58:17;;;;;;;4.53;3.00;;;22.30;72.90;;;;;;4971966;28;20041;-51
2023/07/23 04:00:43;;;;;;;2.83;2.60;;;22.30;73.10;;;;;;4988055;28;20027;-51
2023/07/23 04:03:08;;;;;;;3.78;2.83;;;22.30;73.20;;;;;;4989020;28;20051;-51
2023/07/23 04:05:34;;;;;;;3.80;2.83;;;22.30;73.30;;;;;;4987921;28;20066;-51
2023/07/23 04:07:59;;;;;;;7.03;2.70;;;22.20;73.40;;;;;;4988812;28;20054;-51
2023/07/23 04:10:25;;;;;;;2.50;2.25;;;22.20;73.40;;;;;;4987854;28;20030;-51
2023/07/23 04:12:50;;;;;;;4.03;2.55;;;22.30;73.40;;;;;;4989016;28;20035;-51
2023/07/23 04:15:16;;;;;;;2.63;2.42;;;22.20;73.40;;;;;;4971498;28;20031;-51
2023/07/23 04:17:41;;;;;;;3.15;2.67;;;22.20;73.50;;;;;;4988585;28;20038;-51
2023/07/23 04:20:07;;;;;;;2.55;2.35;;;22.20;73.50;;;;;;4971345;28;20077;-51
2023/07/23 04:22:33;;;;;;;5.57;2.65;;;22.10;73.50;;;;;;4987765;28;20026;-51
2023/07/23 04:24:58;;;;;;;3.08;2.75;;;22.20;73.70;;;;;;4987492;28;20090;-51
2023/07/23 04:27:24;;;;;;;4.70;2.42;;;22.20;73.70;;;;;;4988509;28;20091;-51
2023/07/23 04:29:49;;;;;;;3.90;2.58;;;22.20;73.80;;;;;;4987342;28;20034;-51
2023/07/23 04:32:15;;;;;;;3.00;2.63;;;22.10;73.90;;;;;;4987456;28;20033;-51
2023/07/23 04:34:41;;;;;;;3.45;2.60;;;22.10;73.90;;;;;;4987421;28;20035;-51
2023/07/23 04:37:07;;;;;;;4.93;2.40;;;22.10;73.90;;;;;;4987293;28;20023;-51
2023/07/23 04:39:33;;;;;;;3.42;2.45;;;22.10;74.10;;;;;;4987305;28;20049;-51
2023/07/23 04:41:58;;;;;;;4.43;2.45;;;22.10;74.10;;;;;;4987198;28;20402;-51
2023/07/23 04:44:24;;;;;;;3.75;2.75;;;22.00;74.70;;;;;;4986758;28;20054;-51
2023/07/23 04:46:49;;;;;;;5.30;2.50;;;22.10;74.30;;;;;;4988407;28;20030;-51
2023/07/23 04:49:15;;;;;;;2.63;2.28;;;22.00;74.30;;;;;;4987106;28;20026;-51
2023/07/23 04:51:40;;;;;;;3.42;2.53;;;22.00;74.40;;;;;;4987170;28;20099;-51
2023/07/23 04:54:06;;;;;;;5.75;2.47;;;22.00;74.50;;;;;;4988386;28;20210;-51
2023/07/23 04:56:32;;;;;;;3.03;2.55;;;21.90;74.60;;;;;;4988927;28;20062;-51
2023/07/23 04:58:58;;;;;;;2.35;2.15;;;22.00;74.70;;;;;;4989482;28;20023;-51
2023/07/23 05:01:23;;;;;;;3.78;2.55;;;22.00;74.70;;;;;;4988428;28;20038;-51
2023/07/23 05:03:49;;;;;;;4.32;2.70;;;22.00;74.60;;;;;;4987986;28;20025;-51
2023/07/23 05:06:15;;;;;;;4.78;2.50;;;21.90;74.60;;;;;;4988493;28;20066;-51
2023/07/23 05:08:40;;;;;;;3.20;2.55;;;21.90;74.80;;;;;;4986958;28;20102;-51
2023/07/23 05:11:06;;;;;;;4.80;2.67;;;21.90;74.80;;;;;;4987037;28;20431;-51
2023/07/23 05:13:32;;;;;;;2.85;2.28;;;21.90;74.80;;;;;;4986883;28;20054;-51
2023/07/23 05:15:59;;;;;;;3.00;2.58;;;21.90;74.80;;;;;;4986695;28;20035;-51
2023/07/23 05:18:25;;;;;;;2.90;2.35;;;21.90;74.90;;;;;;4986717;28;20142;-51
2023/07/23 05:20:50;;;;;;;3.17;2.10;;;21.90;75.00;;;;;;4987771;28;20031;-50
2023/07/23 05:23:17;;;;;;;3.65;2.75;;;21.80;75.70;;;;;;4987888;28;20029;-51
2023/07/23 05:25:43;;;;;;;3.35;2.35;;;21.80;75.10;;;;;;4987754;28;20154;-51
2023/07/23 05:28:10;;;;;;;2.97;2.60;;;21.80;75.10;;;;;;4986314;28;20482;-51
2023/07/23 05:30:35;;;;;;;2.80;2.42;;;21.80;75.10;;;;;;4986375;28;20035;-51
2023/07/23 05:33:01;;;;;;;2.92;2.38;;;21.80;75.10;;;;;;4986351;28;20054;-51
2023/07/23 05:35:26;;;;;;;3.72;2.20;;;21.80;75.10;;;;;;4987572;28;20045;-51
2023/07/23 05:37:52;;;;;;;3.60;2.42;;;21.80;75.20;;;;;;4987664;28;20061;-51
2023/07/23 05:40:17;;;;;;;3.80;2.47;;;21.80;75.10;;;;;;4987447;28;20034;-51
2023/07/23 05:42:43;;;;;;;3.97;2.40;;;21.80;75.10;;;;;;4969757;28;20038;-51
2023/07/23 05:45:09;;;;;;;3.00;2.35;;;21.80;75.10;;;;;;4986197;28;20027;-51
2023/07/23 05:47:35;;;;;;;4.22;2.60;;;21.80;75.10;;;;;;4987227;28;20119;-51
2023/07/23 05:50:00;;;;;;;2.67;2.45;;;21.80;75.10;;;;;;4987303;28;20046;-51
2023/07/23 05:52:26;;;;;;;2.83;2.30;;;21.80;75.20;;;;;;4969825;28;20038;-51
2023/07/23 05:54:51;;;;;;;4.35;2.55;;;21.80;75.20;;;;;;4986069;28;20039;-51
2023/07/23 05:57:17;;;;;;;3.90;2.50;;;21.80;75.20;;;;;;4986040;28;20119;-51
2023/07/23 05:59:42;;;;;;;3.72;2.50;;;21.80;75.20;;;;;;4986080;28;20039;-51
2023/07/23 06:02:08;;;;;;;3.78;2.42;;;21.80;75.10;;;;;;4987274;28;20029;-51
2023/07/23 06:04:34;;;;;;;3.78;2.53;;;21.80;75.20;;;;;;4987300;28;20023;-51
2023/07/23 06:07:00;;;;;;;4.88;2.58;;;21.90;75.30;;;;;;4986005;28;20034;-51
2023/07/23 06:09:26;;;;;;;3.17;2.60;;;21.90;75.30;;;;;;4986120;28;20390;-51
2023/07/23 06:11:53;;;;;;;3.72;2.50;;;21.90;75.10;;;;;;4987221;28;20027;-51
2023/07/23 06:14:18;;;;;;;3.17;2.58;;;21.90;75.20;;;;;;4987606;28;20026;-51
2023/07/23 06:16:44;;;;;;;2.83;2.50;;;21.90;75.20;;;;;;4985905;28;20045;-51
2023/07/23 06:19:09;;;;;;;4.05;2.53;;;21.90;75.10;;;;;;4985940;28;20050;-51
2023/07/23 06:21:35;;;;;;;5.18;2.50;;;21.80;75.10;;;;;;4986292;28;20031;-51
2023/07/23 06:24:00;;;;;;;4.05;2.50;;;21.90;75.30;;;;;;4985782;28;20114;-51
2023/07/23 06:26:27;;;;;;;4.40;2.63;;;21.90;75.40;;;;;;4987437;28;20035;-51
2023/07/23 06:28:52;;;;;;;2.80;2.55;;;21.90;75.60;;;;;;4987533;28;20039;-51
2023/07/23 06:31:18;;;;;;;2.60;2.40;;;21.90;75.50;;;;;;4985901;28;20161;-51
2023/07/23 06:33:44;;;;;;;2.72;2.50;;;21.90;75.40;;;;;;4986322;28;20046;-52
2023/07/23 06:36:09;;;;;;;3.10;2.40;;;21.90;75.40;;;;;;4987908;28;20031;-52
2023/07/23 06:38:35;;;;;;;4.32;2.60;;;21.90;75.40;;;;;;4986094;28;20035;-51
2023/07/23 06:41:01;;;;;;;3.65;2.22;;;21.90;75.40;;;;;;4985632;28;20027;-52
2023/07/23 06:43:26;;;;;;;3.28;2.53;;;21.90;75.40;;;;;;4987157;28;20468;-52
2023/07/23 06:45:52;;;;;;;4.45;2.22;;;21.90;75.40;;;;;;4987064;28;20517;-51
2023/07/23 06:48:19;;;;;;;2.55;2.22;;;22.00;75.50;;;;;;4969725;28;20039;-51
2023/07/23 06:50:45;;;;;;;3.65;2.70;;;22.00;75.40;;;;;;4986150;28;20050;-51
2023/07/23 06:53:10;;;;;;;3.08;2.55;;;22.00;75.50;;;;;;4985788;28;20031;-51
2023/07/23 06:56:02;;;;;;;4.93;2.67;;;21.90;75.40;;;;;;4985454;28;20031;-51
2023/07/23 06:58:28;;;;;;;3.50;2.50;;;22.00;75.50;;;;;;4985091;28;20058;-51
2023/07/23 07:00:54;;;;;;;3.30;2.75;;;22.00;75.60;;;;;;4985200;28;20061;-51
2023/07/23 07:03:19;;;;;;;5.20;2.50;;;22.00;75.40;;;;;;4984497;28;20102;-51
2023/07/23 07:05:45;;;;;;;2.70;2.38;;;22.00;75.20;;;;;;4984711;28;20023;-51
2023/07/23 07:08:11;;;;;;;2.97;2.63;;;22.00;75.00;;;;;;4987747;28;20035;-51
2023/07/23 07:10:36;;;;;;;4.40;2.60;;;22.00;75.00;;;;;;4988812;28;20037;-51
2023/07/23 07:13:02;;;;;;;3.50;2.40;;;22.00;75.00;;;;;;4988816;28;20042;-51
2023/07/23 07:15:28;;;;;;;3.25;2.50;;;22.00;75.00;;;;;;4989065;28;20035;-51
2023/07/23 07:17:53;;;;;;;5.07;2.53;;;22.00;75.40;;;;;;4988836;28;20102;-51
2023/07/23 07:20:19;;;;;;;4.97;2.78;;;22.00;75.50;;;;;;4988949;28;20026;-51
2023/07/23 07:22:44;;;;;;;3.60;2.50;;;22.00;75.50;;;;;;4988520;28;20034;-51
2023/07/23 07:25:10;;;;;;;3.63;2.40;;;22.00;75.40;;;;;;4989772;28;20077;-51
2023/07/23 07:27:36;;;;;;;3.88;2.72;;;22.00;75.40;;;;;;4988577;28;20086;-51
2023/07/23 07:30:01;;;;;;;3.17;2.72;;;22.00;75.30;;;;;;4988127;28;20039;-51
2023/07/23 07:32:27;;;;;;;5.80;2.40;;;22.00;75.20;;;;;;4988350;28;20046;-51
2023/07/23 07:34:52;;;;;;;3.10;2.42;;;22.00;75.10;;;;;;4988509;28;20038;-52
2023/07/23 07:37:18;;;;;;;4.65;2.60;;;22.00;75.10;;;;;;4988271;28;20041;-52
2023/07/23 07:39:43;;;;;;;3.92;2.63;;;22.10;74.90;;;;;;4988569;28;20022;-52
2023/07/23 07:42:09;;;;;;;3.75;2.45;;;22.10;74.70;;;;;;4989258;28;20035;-51
2023/07/23 07:44:34;;;;;;;4.65;2.53;;;22.10;74.70;;;;;;4988456;28;20074;-52
2023/07/23 07:47:00;;;;;;;3.75;2.80;;;22.10;74.70;;;;;;4989695;28;20089;-52
2023/07/23 07:49:26;;;;;;;2.88;2.33;;;22.10;74.60;;;;;;4989515;28;20035;-51
2023/07/23 07:51:51;;;;;;;2.92;2.67;;;22.10;74.60;;;;;;4989183;28;20027;-51
2023/07/23 07:54:17;;;;;;;3.17;2.47;;;22.20;74.40;;;;;;4988149;28;20030;-51
2023/07/23 07:56:43;;;;;;;3.03;2.60;;;22.20;74.00;;;;;;4987866;28;20098;-51
2023/07/23 07:59:12;;;;;;;2.97;2.03;;;22.20;73.70;;;;;;4971816;28;20030;-51
2023/07/23 08:01:38;;;;;;;2.65;2.38;;;22.30;73.60;;;;;;4972297;28;20046;-52
2023/07/23 08:04:07;;;;;;;6.28;2.45;;;22.30;73.30;;;;;;4986596;28;20022;-51
2023/07/23 08:06:33;;;;;;;3.97;2.40;;;22.30;73.10;;;;;;4983232;28;20522;-51
2023/07/23 08:08:59;;;;;;;5.10;2.70;;;22.30;72.90;;;;;;4966761;28;20039;-51
2023/07/23 08:11:25;;;;;;;7.72;2.92;;;22.40;72.70;;;;;;4971454;28;20094;-52
2023/07/23 08:13:50;;;;;;;6.40;2.55;;;22.40;72.40;;;;;;4987706;28;20030;-52
2023/07/23 08:16:16;;;;;;;5.97;2.60;;;22.40;72.20;;;;;;4987534;28;20067;-51
2023/07/23 08:18:41;;;;;;;5.50;2.65;;;22.40;72.10;;;;;;4969372;28;20053;-51
2023/07/23 08:21:08;;;;;;;8.18;2.70;;;22.50;71.90;;;;;;4987329;28;20046;-51
2023/07/23 08:23:35;;;;;;;3.22;2.65;;;22.50;71.90;;;;;;4988553;28;20038;-51
2023/07/23 08:26:00;;;;;;;4.05;2.70;;;22.50;71.70;;;;;;4988630;28;20035;-51
2023/07/23 08:28:29;;;;;;;7.85;2.92;;;22.50;71.60;;;;;;4987377;28;20033;-51
2023/07/23 08:30:58;;;;;;;16.10;3.25;;;22.60;71.50;;;;;;4986512;28;20046;-51
2023/07/23 08:33:28;;;;;;;5.78;2.72;;;22.60;71.40;;;;;;4985232;28;20027;-52
2023/07/23 08:35:57;;;;;;;7.25;2.78;;;22.60;71.30;;;;;;4983336;28;20042;-51
2023/07/23 08:38:23;;;;;;;7.72;3.08;;;22.60;71.20;;;;;;4968842;28;20061;-51
2023/07/23 08:41:00;;;;;;;14.77;2.50;;;22.70;71.10;;;;;;4986420;28;20034;-51
2023/07/23 08:43:58;;;;;;;9.00;2.65;;;22.70;70.90;;;;;;4986264;28;20027;-51
2023/07/23 08:46:24;;;;;;;11.65;3.33;;;22.80;70.60;;;;;;4934737;29;20130;-51
2023/07/23 08:49:04;;;;;;;15.38;2.97;;;22.80;70.50;;;;;;4982469;28;20027;-51
2023/07/23 08:51:37;;;;;;;17.08;3.05;;;22.80;70.40;;;;;;4986697;28;20070;-51
2023/07/23 08:54:03;;;;;;;10.63;3.92;;;22.90;70.50;;;;;;4969037;28;20057;-51
2023/07/23 08:56:28;;;;;;;13.38;3.58;;;22.90;70.40;;;;;;4981847;28;20035;-51
2023/07/23 08:58:54;;;;;;;20.77;3.35;;;22.90;70.50;;;;;;4978620;28;20034;-52
2023/07/23 09:01:19;;;;;;;29.63;3.75;;;23.00;70.50;;;;;;4986770;28;20050;-51
2023/07/23 09:03:46;;;;;;;21.30;3.45;;;23.00;70.20;;;;;;4998156;28;20094;-51
2023/07/23 09:06:12;;;;;;;19.00;4.43;;;23.10;70.00;;;;;;4982910;28;20035;-51
2023/07/23 09:08:37;;;;;;;24.10;3.80;;;23.10;69.70;;;;;;4969410;28;20300;-51
2023/07/23 09:11:09;;;;;;;34.47;6.25;;;23.20;69.70;;;;;;4998946;28;20035;-51
2023/07/23 09:13:35;;;;;;;32.67;6.15;;;23.30;69.40;;;;;;4986378;28;20106;-51
2023/07/23 09:16:01;;;;;;;36.88;5.30;;;23.30;69.30;;;;;;4985163;28;20125;-52
2023/07/23 09:18:27;;;;;;;25.27;5.20;;;23.40;68.90;;;;;;4985224;28;20042;-51
2023/07/23 09:20:52;;;;;;;27.63;4.35;;;23.50;68.80;;;;;;4982633;28;20035;-52
2023/07/23 09:23:18;;;;;;;38.13;5.57;;;23.50;68.40;;;;;;4985723;28;20022;-51
2023/07/23 09:25:44;;;;;;;31.98;5.38;;;23.60;68.50;;;;;;4985333;28;20034;-51
2023/07/23 09:28:22;;;;;;;34.45;6.07;;;23.60;68.40;;;;;;4984009;28;20046;-51
2023/07/23 09:30:51;;;;;;;65.38;8.13;;;23.60;68.40;;;;;;4966945;28;20035;-51
2023/07/23 09:33:17;;;;;;;50.08;6.65;;;23.70;68.20;;;;;;4984418;28;20037;-51
2023/07/23 09:35:43;;;;;;;64.45;6.85;;;23.80;68.20;;;;;;4986647;28;20449;-51
2023/07/23 09:38:12;;;;;;;45.55;6.35;;;23.90;68.20;;;;;;4992620;28;20039;-51
2023/07/23 09:40:39;;;;;;;59.85;8.40;;;23.90;68.10;;;;;;4985846;28;20035;-51
2023/07/23 09:43:05;;;;;;;71.85;9.25;;;23.90;68.40;;;;;;4968146;28;20030;-51
2023/07/23 09:45:34;;;;;;;51.65;7.40;;;23.90;68.30;;;;;;4984876;28;20026;-52
2023/07/23 09:48:01;;;;;;;35.83;6.93;;;23.90;68.60;;;;;;4983976;28;20118;-52
2023/07/23 09:50:26;;;;;;;51.72;7.53;;;23.90;68.60;;;;;;4985036;28;20027;-52
2023/07/23 09:52:52;;;;;;;53.88;7.43;;;23.90;68.80;;;;;;4980450;28;20042;-51
2023/07/23 09:55:19;;;;;;;75.53;8.75;;;23.90;68.90;;;;;;4990050;28;20039;-51
2023/07/23 09:57:46;;;;;;;70.20;8.77;;;24.00;69.10;;;;;;4975745;28;20034;-51
2023/07/23 10:00:12;;;;;;;70.53;9.55;;;24.00;69.00;;;;;;4979087;28;20578;-52
2023/07/23 10:02:38;;;;;;;72.75;8.73;;;24.00;68.90;;;;;;4974686;28;20065;-52
2023/07/23 10:05:04;;;;;;;64.72;8.05;;;24.00;68.80;;;;;;4965827;28;20056;-52
2023/07/23 10:07:30;;;;;;;68.05;9.38;;;24.10;68.70;;;;;;4981827;28;20034;-52
2023/07/23 10:09:56;;;;;;;71.22;8.98;;;24.10;68.60;;;;;;4975135;28;20450;-51
2023/07/23 10:12:22;;;;;;;47.75;9.25;;;24.10;68.30;;;;;;4981782;28;20042;-51
2023/07/23 10:14:47;;;;;;;54.25;9.27;;;24.20;68.20;;;;;;4982880;28;20125;-51
2023/07/23 10:17:13;;;;;;;62.58;9.65;;;24.20;68.00;;;;;;4984228;28;20027;-51
2023/07/23 10:19:40;;;;;;;58.70;8.88;;;24.20;67.90;;;;;;4986658;28;20403;-51
2023/07/23 10:22:06;;;;;;;75.15;8.95;;;24.20;67.80;;;;;;4969242;28;20031;-52
2023/07/23 10:24:38;;;;;;;57.50;8.45;;;24.30;67.70;;;;;;4985555;28;20019;-51
2023/07/23 10:27:14;;;;;;;75.75;9.80;;;24.30;67.60;;;;;;4968328;28;20391;-51
2023/07/23 10:29:40;;;;;;;80.03;11.80;;;24.40;67.70;;;;;;4985767;28;20094;-51
2023/07/23 10:32:26;;;;;;;67.55;10.95;;;24.40;68.00;;;;;;4982247;28;20486;-52
2023/07/23 10:34:53;;;;;;;58.45;10.00;;;24.40;67.80;;;;;;4966633;28;20094;-52
2023/07/23 10:37:19;;;;;;;92.22;10.77;;;24.40;67.80;;;;;;4984409;28;20027;-52
2023/07/23 10:39:52;;;;;;;89.07;11.15;;;24.50;67.90;;;;;;4983386;28;20027;-52
2023/07/23 10:42:36;;;;;;;96.55;12.50;;;24.50;67.90;;;;;;4988003;28;20035;-51
2023/07/23 10:45:17;;;;;;;83.18;11.75;;;24.60;68.00;;;;;;4988646;28;20035;-51
2023/07/23 10:47:52;;;;;;;77.65;10.43;;;24.60;67.90;;;;;;4990135;28;20038;-52
2023/07/23 10:50:18;;;;;;;77.07;11.95;;;24.50;67.90;;;;;;4987197;28;20190;-52
2023/07/23 10:53:02;;;;;;;52.95;10.60;;;24.70;68.00;;;;;;4977483;28;20035;-52
2023/07/23 10:55:50;;;;;;;96.18;12.75;;;24.70;67.70;;;;;;4986368;28;20045;-52
2023/07/23 10:58:19;;;;;;;85.10;12.20;;;24.80;67.80;;;;;;4989038;28;20030;-52
2023/07/23 11:00:47;;;;;;;84.20;12.02;;;24.80;67.80;;;;;;4988345;28;20066;-51
2023/07/23 11:03:13;;;;;;;64.30;11.25;;;24.90;67.70;;;;;;4988670;28;20054;-51
2023/07/23 11:05:40;;;;;;;71.93;10.25;;;24.90;67.50;;;;;;4988537;28;20098;-52
2023/07/23 11:08:19;;;;;;;75.32;11.48;;;25.10;67.40;;;;;;4971955;28;20042;-52
2023/07/23 11:10:55;;;;;;;87.30;12.15;;;25.10;67.30;;;;;;4986686;28;20046;-52
2023/07/23 11:13:21;;;;;;;73.30;10.82;;;25.20;67.30;;;;;;4985008;28;20173;-53
2023/07/23 11:15:46;;;;;;;79.32;11.85;;;25.30;67.00;;;;;;4986365;28;20097;-51
2023/07/23 11:18:12;;;;;;;97.47;12.00;;;25.40;66.70;;;;;;4969708;28;20031;-51
2023/07/23 11:20:38;;;;;;;71.00;10.95;;;25.40;66.40;;;;;;4986817;28;20187;-51
2023/07/23 11:23:06;;;;;;;66.72;11.07;;;25.50;66.30;;;;;;4987711;28;20027;-51
2023/07/23 11:25:32;;;;;;;57.42;9.82;;;25.60;66.40;;;;;;4968729;28;20483;-51
2023/07/23 11:27:57;;;;;;;61.65;10.93;;;25.70;66.20;;;;;;4972031;28;20165;-51
2023/07/23 11:30:23;;;;;;;50.47;9.85;;;25.80;66.10;;;;;;4988434;28;20054;-52
2023/07/23 11:32:49;;;;;;;68.68;11.13;;;25.80;65.90;;;;;;4988862;28;20031;-51
2023/07/23 11:35:17;;;;;;;50.92;9.48;;;25.90;65.50;;;;;;4971879;28;20034;-51
2023/07/23 11:37:48;;;;;;;83.35;14.95;;;26.00;64.80;;;;;;4987924;28;20100;-51
2023/07/23 11:40:21;;;;;;;74.68;12.07;;;26.10;64.90;;;;;;4988149;28;20089;-51
2023/07/23 11:42:47;;;;;;;79.80;13.70;;;26.20;64.50;;;;;;4987961;28;20047;-51
2023/07/23 11:45:12;;;;;;;74.80;11.32;;;26.40;64.40;;;;;;4987812;28;20026;-52
2023/07/23 11:47:53;;;;;;;92.50;14.07;;;26.50;64.00;;;;;;4988405;28;20074;-51
2023/07/23 11:50:20;;;;;;;85.55;13.48;;;26.50;63.90;;;;;;4989045;28;20054;-51
2023/07/23 11:52:50;;;;;;;93.47;14.05;;;26.60;63.60;;;;;;4987189;28;20042;-51
2023/07/23 11:55:23;;;;;;;66.53;13.50;;;26.70;63.50;;;;;;4971488;28;20031;-51
2023/07/23 11:57:55;;;;;;;58.97;11.10;;;26.80;63.30;;;;;;4987149;28;20030;-51
2023/07/23 12:00:25;;;;;;;55.20;11.45;;;26.90;63.20;;;;;;4987863;28;20475;-51
2023/07/23 12:02:50;;;;;;;39.33;10.73;;;26.90;62.80;;;;;;4987796;28;20038;-51
2023/07/23 12:05:16;;;;;;;50.58;11.82;;;27.00;62.60;;;;;;4987839;28;20033;-51
2023/07/23 12:07:41;;;;;;;64.57;14.45;;;27.00;62.40;;;;;;4955326;28;20030;-51
2023/07/23 12:10:07;;;;;;;72.70;12.70;;;27.10;62.40;;;;;;4988932;28;20034;-51
2023/07/23 12:12:33;;;;;;;50.33;10.55;;;27.20;62.20;;;;;;4987686;28;20035;-51
2023/07/23 12:15:05;;;;;;;160.50;20.80;;;27.30;61.80;;;;;;4987648;28;20027;-51
2023/07/23 12:17:31;;;;;;;83.13;15.23;;;27.30;61.70;;;;;;4988693;28;20030;-51
2023/07/23 12:19:56;;;;;;;62.58;12.50;;;27.40;61.70;;;;;;4987595;28;20034;-51
2023/07/23 12:22:24;;;;;;;54.30;11.82;;;27.40;61.30;;;;;;4971324;28;20105;-51
2023/07/23 12:24:49;;;;;;;50.63;13.00;;;27.50;61.10;;;;;;4987580;28;20042;-51
2023/07/23 12:27:15;;;;;;;65.97;13.57;;;27.60;61.10;;;;;;4986051;28;20035;-51
2023/07/23 12:29:42;;;;;;;50.30;12.30;;;27.60;61.10;;;;;;4986245;28;20034;-51
2023/07/23 12:32:15;;;;;;;72.78;12.88;;;27.70;61.00;;;;;;4987387;28;20324;-51
2023/07/23 12:34:45;;;;;;;42.83;12.25;;;27.80;61.10;;;;;;4971338;28;20038;-51
2023/07/23 12:37:11;;;;;;;46.70;11.02;;;27.80;60.70;;;;;;4987738;28;20053;-51
2023/07/23 12:39:36;;;;;;;63.35;12.40;;;27.90;60.70;;;;;;4987079;28;20034;-51